createdAt,value
2018-12-22T00:00:25.893Z,7.20
2018-12-22T00:02:58.202Z,8.43
2018-12-22T00:05:30.698Z,8.67
2018-12-22T00:08:03.247Z,9.63
2018-12-22T00:10:35.955Z,10.07
2018-12-22T00:13:08.280Z,9.97
2018-12-22T00:15:40.752Z,10.83
2018-12-22T00:18:13.430Z,10.73
2018-12-22T00:20:45.935Z,10.67
2018-12-22T00:23:18.249Z,11.83
2018-12-22T00:25:50.641Z,12.43
2018-12-22T00:28:23.088Z,11.97
2018-12-22T00:30:55.543Z,12.77
2018-12-22T00:33:28.180Z,12.37
2018-12-22T00:36:00.680Z,12.63
2018-12-22T00:38:33.351Z,13.10
2018-12-22T00:41:05.791Z,12.70
2018-12-22T00:43:38.363Z,12.73
2018-12-22T00:46:11.267Z,12.80
2018-12-22T00:48:44.052Z,11.50
2018-12-22T00:51:16.477Z,12.90
2018-12-22T00:53:48.931Z,11.03
2018-12-22T00:56:21.296Z,11.60
2018-12-22T00:58:53.742Z,10.60
2018-12-22T01:01:26.166Z,9.93
2018-12-22T01:03:58.834Z,10.77
2018-12-22T01:06:31.297Z,10.40
2018-12-22T01:09:05.424Z,9.80
2018-12-22T01:11:37.688Z,10.77
2018-12-22T01:14:10.415Z,11.40
2018-12-22T01:16:44.748Z,11.37
2018-12-22T01:19:17.527Z,10.87
2018-12-22T01:21:57.024Z,10.10
2018-12-22T01:24:29.402Z,10.00
2018-12-22T01:27:02.069Z,9.93
2018-12-22T01:29:34.449Z,10.57
2018-12-22T01:32:06.874Z,10.40
2018-12-22T01:34:39.287Z,11.67
2018-12-22T01:37:11.738Z,10.57
2018-12-22T01:39:44.200Z,10.00
2018-12-22T01:42:16.814Z,11.27
2018-12-22T01:44:49.909Z,11.70
2018-12-22T01:47:22.355Z,11.73
2018-12-22T01:49:54.793Z,10.43
2018-12-22T01:52:27.520Z,12.00
2018-12-22T01:55:00.118Z,12.27
2018-12-22T01:57:32.600Z,11.83
2018-12-22T02:00:07.057Z,11.77
2018-12-22T02:02:39.393Z,11.33
2018-12-22T02:05:11.847Z,11.23
2018-12-22T02:07:44.330Z,11.87
2018-12-22T02:10:16.754Z,12.43
2018-12-22T02:12:49.328Z,12.47
2018-12-22T02:15:21.823Z,12.83
2018-12-22T02:17:54.318Z,12.93
2018-12-22T02:20:26.704Z,12.10
2018-12-22T02:22:59.160Z,12.70
2018-12-22T02:25:31.584Z,13.60
2018-12-22T02:28:04.244Z,12.77
2018-12-22T02:30:36.755Z,12.73
2018-12-22T02:33:09.095Z,12.53
2018-12-22T02:35:41.850Z,12.93
2018-12-22T02:38:14.194Z,12.63
2018-12-22T02:40:46.875Z,12.90
2018-12-22T02:43:19.219Z,12.70
2018-12-22T02:45:51.651Z,12.37
2018-12-22T02:48:24.056Z,13.10
2018-12-22T02:50:56.650Z,12.77
2018-12-22T02:53:29.020Z,13.63
2018-12-22T02:56:01.501Z,13.17
2018-12-22T02:58:34.025Z,14.63
2018-12-22T03:01:06.531Z,14.13
2018-12-22T03:03:38.986Z,13.97
2018-12-22T03:06:11.422Z,11.93
2018-12-22T03:08:43.919Z,12.93
2018-12-22T03:11:16.619Z,12.97
2018-12-22T03:13:48.933Z,13.07
2018-12-22T03:16:21.430Z,12.83
2018-12-22T03:18:53.968Z,11.73
2018-12-22T03:21:26.566Z,11.47
2018-12-22T03:23:59.024Z,9.43
2018-12-22T03:26:31.394Z,10.03
2018-12-22T03:29:03.943Z,9.27
2018-12-22T03:31:36.271Z,9.67
2018-12-22T03:34:08.710Z,10.57
2018-12-22T03:36:41.258Z,9.77
2018-12-22T03:39:13.749Z,8.73
2018-12-22T03:41:46.032Z,10.10
2018-12-22T03:44:18.599Z,9.00
2018-12-22T03:46:51.069Z,8.87
2018-12-22T03:49:23.438Z,9.80
2018-12-22T03:51:55.958Z,8.93
2018-12-22T03:54:28.430Z,9.17
2018-12-22T03:57:00.805Z,8.97
2018-12-22T03:59:33.253Z,8.63
2018-12-22T04:02:05.664Z,8.80
2018-12-22T04:04:38.043Z,8.67
2018-12-22T04:07:10.461Z,8.77
2018-12-22T04:09:42.847Z,9.33
2018-12-22T04:12:15.225Z,8.30
2018-12-22T04:14:47.684Z,8.33
2018-12-22T04:17:20.133Z,8.33
2018-12-22T04:19:52.769Z,8.30
2018-12-22T04:22:25.163Z,8.57
2018-12-22T04:24:57.801Z,8.43
2018-12-22T04:27:30.332Z,8.67
2018-12-22T04:30:03.494Z,8.60
2018-12-22T04:32:36.287Z,7.87
2018-12-22T04:35:08.808Z,7.10
2018-12-22T04:37:41.126Z,6.73
2018-12-22T04:40:13.795Z,7.20
2018-12-22T04:42:46.162Z,6.90
2018-12-22T04:45:18.655Z,6.33
2018-12-22T04:47:51.077Z,6.63
2018-12-22T04:50:24.299Z,7.23
2018-12-22T04:52:56.737Z,5.87
2018-12-22T04:55:29.216Z,5.40
2018-12-22T04:58:01.539Z,6.33
2018-12-22T05:00:34.003Z,6.57
2018-12-22T05:03:06.435Z,7.03
2018-12-22T05:05:39.126Z,7.03
2018-12-22T05:08:11.539Z,7.03
2018-12-22T05:10:43.971Z,6.83
2018-12-22T05:13:16.303Z,6.37
2018-12-22T05:15:48.718Z,7.50
2018-12-22T05:18:21.111Z,6.40
2018-12-22T05:20:53.611Z,7.30
2018-12-22T05:23:26.068Z,6.77
2018-12-22T05:25:58.514Z,6.43
2018-12-22T05:28:31.271Z,6.90
2018-12-22T05:31:03.682Z,6.03
2018-12-22T05:33:36.173Z,6.07
2018-12-22T05:36:08.472Z,6.80
2018-12-22T05:38:41.360Z,6.70
2018-12-22T05:41:13.951Z,6.13
2018-12-22T05:43:46.420Z,6.87
2018-12-22T05:46:18.786Z,6.43
2018-12-22T05:48:51.290Z,5.93
2018-12-22T05:51:23.610Z,5.70
2018-12-22T05:53:56.170Z,6.53
2018-12-22T05:56:29.844Z,5.80
2018-12-22T05:59:02.830Z,5.77
2018-12-22T06:01:35.292Z,5.07
2018-12-22T06:04:07.766Z,4.90
2018-12-22T06:06:40.151Z,4.30
2018-12-22T06:09:12.900Z,5.00
2018-12-22T06:11:45.246Z,4.87
2018-12-22T06:14:17.920Z,4.90
2018-12-22T06:16:50.426Z,4.57
2018-12-22T06:19:22.885Z,3.93
2018-12-22T06:21:55.361Z,4.43
2018-12-22T06:24:27.767Z,4.07
2018-12-22T06:27:00.482Z,4.30
2018-12-22T06:29:33.056Z,4.60
2018-12-22T06:32:12.538Z,4.60
2018-12-22T06:34:45.591Z,4.30
2018-12-22T06:37:17.957Z,4.13
2018-12-22T06:42:43.361Z,4.50
2018-12-22T06:45:15.896Z,4.73
2018-12-22T06:47:48.241Z,4.90
2018-12-22T06:50:20.785Z,4.87
2018-12-22T06:52:53.303Z,4.80
2018-12-22T06:55:25.716Z,5.47
2018-12-22T06:57:58.087Z,6.23
2018-12-22T07:00:30.522Z,8.17
2018-12-22T07:03:03.005Z,7.80
2018-12-22T07:05:35.490Z,9.63
2018-12-22T07:08:08.105Z,8.63
2018-12-22T07:10:40.541Z,9.17
2018-12-22T07:13:13.006Z,9.90
2018-12-22T07:15:45.601Z,9.67
2018-12-22T07:18:17.942Z,9.67
2018-12-22T07:20:50.510Z,9.07
2018-12-22T07:23:23.755Z,9.23
2018-12-22T07:25:56.188Z,9.10
2018-12-22T07:28:28.798Z,9.07
2018-12-22T07:31:01.971Z,8.33
2018-12-22T07:33:34.722Z,7.60
2018-12-22T07:36:07.351Z,9.23
2018-12-22T07:38:39.947Z,8.13
2018-12-22T07:41:12.370Z,8.30
2018-12-22T07:43:44.871Z,7.97
2018-12-22T07:46:17.258Z,7.73
2018-12-22T07:48:49.850Z,7.10
2018-12-22T07:51:22.610Z,6.60
2018-12-22T07:53:55.236Z,6.70
2018-12-22T07:56:27.775Z,6.30
2018-12-22T07:59:00.540Z,5.37
2018-12-22T08:01:32.925Z,5.13
2018-12-22T08:04:05.311Z,3.60
2018-12-22T08:06:37.842Z,3.00
2018-12-22T08:09:10.265Z,1.77
2018-12-22T08:11:42.622Z,1.80
2018-12-22T08:14:15.050Z,2.00
2018-12-22T08:16:47.451Z,1.90
2018-12-22T08:19:19.924Z,1.90
2018-12-22T08:21:52.825Z,2.30
2018-12-22T08:24:25.396Z,2.90
2018-12-22T08:26:57.744Z,3.40
2018-12-22T08:29:30.198Z,3.87
2018-12-22T08:32:02.625Z,3.40
2018-12-22T08:34:35.110Z,3.87
2018-12-22T08:37:07.641Z,4.43
2018-12-22T08:39:40.087Z,5.13
2018-12-22T08:42:12.482Z,5.47
2018-12-22T08:44:45.063Z,6.97
2018-12-22T08:47:18.021Z,6.10
2018-12-22T08:49:50.544Z,6.73
2018-12-22T08:52:22.896Z,7.13
2018-12-22T08:54:55.630Z,6.90
2018-12-22T08:57:28.086Z,5.40
2018-12-22T09:00:00.530Z,4.70
2018-12-22T09:02:33.091Z,3.93
2018-12-22T09:05:06.360Z,3.83
2018-12-22T09:07:38.705Z,4.17
2018-12-22T09:10:11.521Z,3.90
2018-12-22T09:12:43.839Z,4.10
2018-12-22T09:15:16.431Z,3.40
2018-12-22T09:17:48.954Z,1.77
2018-12-22T09:20:21.423Z,1.70
2018-12-22T09:22:54.045Z,2.20
2018-12-22T09:25:26.412Z,2.17
2018-12-22T09:27:58.973Z,2.10
2018-12-22T09:30:32.001Z,2.43
2018-12-22T09:33:04.435Z,2.43
2018-12-22T09:35:36.872Z,2.03
2018-12-22T09:38:09.370Z,2.10
2018-12-22T09:40:41.675Z,1.70
2018-12-22T09:43:14.050Z,2.07
2018-12-22T09:45:46.561Z,1.83
2018-12-22T09:48:19.152Z,2.10
2018-12-22T09:50:51.836Z,2.07
2018-12-22T09:53:24.317Z,2.07
2018-12-22T09:55:57.017Z,2.73
2018-12-22T09:58:29.575Z,2.50
2018-12-22T10:01:09.351Z,2.70
2018-12-22T10:03:43.675Z,2.60
2018-12-22T10:06:16.009Z,2.57
2018-12-22T10:08:48.534Z,3.10
2018-12-22T10:11:21.042Z,2.70
2018-12-22T10:13:53.635Z,3.00
2018-12-22T10:16:26.236Z,2.53
2018-12-22T10:18:58.797Z,3.20
2018-12-22T10:21:31.608Z,3.57
2018-12-22T10:24:04.090Z,3.47
2018-12-22T10:26:36.597Z,3.50
2018-12-22T10:29:09.092Z,3.23
2018-12-22T10:31:41.854Z,4.07
2018-12-22T10:34:14.423Z,4.30
2018-12-22T10:36:46.930Z,3.90
2018-12-22T10:39:19.660Z,4.23
2018-12-22T10:41:52.230Z,4.20
2018-12-22T10:44:24.906Z,4.67
2018-12-22T10:46:57.510Z,4.73
2018-12-22T10:49:30.036Z,4.63
2018-12-22T10:52:02.712Z,4.40
2018-12-22T10:54:35.039Z,4.53
2018-12-22T10:57:07.608Z,3.53
2018-12-22T10:59:40.230Z,3.83
2018-12-22T11:02:12.714Z,3.13
2018-12-22T11:04:45.393Z,2.80
2018-12-22T11:07:17.954Z,2.67
2018-12-22T11:09:50.750Z,2.77
2018-12-22T11:12:23.320Z,2.37
2018-12-22T11:14:55.730Z,2.60
2018-12-22T11:17:28.331Z,2.10
2018-12-22T11:20:00.775Z,2.10
2018-12-22T11:22:33.335Z,2.40
2018-12-22T11:25:11.641Z,2.00
2018-12-22T11:27:44.022Z,2.03
2018-12-22T11:30:20.345Z,2.40
2018-12-22T11:32:52.780Z,2.80
2018-12-22T11:35:25.243Z,3.53
2018-12-22T11:37:57.815Z,3.30
2018-12-22T11:40:30.150Z,4.40
2018-12-22T11:43:02.630Z,4.83
2018-12-22T11:45:35.057Z,5.50
2018-12-22T11:48:11.893Z,5.47
2018-12-22T11:50:44.395Z,6.80
2018-12-22T11:53:16.893Z,6.97
2018-12-22T11:55:49.394Z,6.70
2018-12-22T11:58:21.870Z,6.93
2018-12-22T12:00:54.516Z,7.60
2018-12-22T12:03:26.921Z,7.10
2018-12-22T12:05:59.385Z,7.80
2018-12-22T12:08:33.111Z,8.57
2018-12-22T12:11:05.608Z,8.87
2018-12-22T12:13:38.142Z,9.57
2018-12-22T12:16:13.075Z,9.40
2018-12-22T12:18:54.645Z,8.73
2018-12-22T12:21:27.059Z,9.47
2018-12-22T12:24:00.555Z,8.50
2018-12-22T12:26:33.196Z,9.47
2018-12-22T12:29:05.682Z,8.73
2018-12-22T12:31:38.114Z,9.67
2018-12-22T12:34:10.596Z,9.57
2018-12-22T12:36:43.118Z,9.23
2018-12-22T12:39:20.794Z,8.93
2018-12-22T12:41:53.186Z,8.53
2018-12-22T12:44:25.875Z,8.70
2018-12-22T12:46:58.490Z,7.70
2018-12-22T12:49:30.870Z,8.10
2018-12-22T12:52:03.274Z,8.50
2018-12-22T12:54:35.643Z,8.13
2018-12-22T12:57:08.385Z,7.67
2018-12-22T12:59:41.000Z,7.70
2018-12-22T13:02:13.569Z,7.80
2018-12-22T13:04:46.366Z,8.70
2018-12-22T13:07:19.131Z,7.47
2018-12-22T13:09:51.971Z,7.33
2018-12-22T13:12:33.201Z,7.37
2018-12-22T13:15:10.661Z,5.73
2018-12-22T13:17:43.321Z,5.70
2018-12-22T13:20:15.696Z,5.10
2018-12-22T13:22:48.251Z,4.53
2018-12-22T13:25:20.985Z,3.67
2018-12-22T13:27:53.489Z,3.50
2018-12-22T13:30:25.926Z,3.70
2018-12-22T13:32:58.704Z,3.20
2018-12-22T13:35:31.441Z,2.93
2018-12-22T13:38:04.050Z,2.67
2018-12-22T13:40:36.699Z,2.67
2018-12-22T13:43:09.402Z,2.70
2018-12-22T13:45:41.929Z,2.57
2018-12-22T13:48:14.633Z,2.17
2018-12-22T13:50:47.545Z,2.57
2018-12-22T13:53:20.224Z,2.53
2018-12-22T13:55:52.675Z,2.43
2018-12-22T13:58:25.156Z,2.93
2018-12-22T14:00:57.607Z,3.20
2018-12-22T14:03:30.270Z,3.20
2018-12-22T14:06:02.820Z,3.30
2018-12-22T14:08:35.501Z,4.13
2018-12-22T14:11:07.850Z,4.80
2018-12-22T14:13:40.301Z,4.00
2018-12-22T14:16:13.059Z,4.10
2018-12-22T14:18:45.611Z,3.90
2018-12-22T14:21:17.884Z,3.90
2018-12-22T14:23:56.171Z,3.90
2018-12-22T14:26:28.591Z,3.30
2018-12-22T14:29:01.119Z,3.33
2018-12-22T14:34:17.626Z,3.30
2018-12-22T14:36:50.286Z,3.63
2018-12-22T14:39:22.859Z,3.40
2018-12-22T14:41:55.307Z,3.20
2018-12-22T14:44:27.789Z,3.40
2018-12-22T14:47:00.263Z,3.70
2018-12-22T14:49:32.995Z,3.63
2018-12-22T14:52:05.594Z,4.33
2018-12-22T14:54:38.027Z,4.00
2018-12-22T14:57:11.991Z,4.10
2018-12-22T14:59:44.917Z,4.37
2018-12-22T15:02:17.469Z,3.73
2018-12-22T15:04:50.010Z,4.40
2018-12-22T15:07:22.407Z,4.40
2018-12-22T15:09:54.885Z,4.47
2018-12-22T15:12:27.494Z,3.73
2018-12-22T15:14:59.906Z,3.20
2018-12-22T15:17:32.335Z,3.17
2018-12-22T15:20:09.796Z,3.70
2018-12-22T15:22:42.495Z,3.30
2018-12-22T15:25:15.090Z,3.10
2018-12-22T15:27:47.512Z,3.30
2018-12-22T15:30:19.917Z,3.20
2018-12-22T15:32:54.839Z,3.50
2018-12-22T15:35:27.249Z,3.80
2018-12-22T15:37:59.910Z,3.70
2018-12-22T15:40:32.369Z,3.50
2018-12-22T15:43:04.864Z,3.30
2018-12-22T15:45:37.274Z,2.80
2018-12-22T15:48:09.900Z,3.27
2018-12-22T15:50:43.141Z,2.87
2018-12-22T15:53:15.536Z,2.80
2018-12-22T15:55:47.983Z,2.50
2018-12-22T15:58:20.583Z,2.17
2018-12-22T16:00:53.058Z,2.40
2018-12-22T16:03:25.786Z,2.07
2018-12-22T16:05:58.326Z,2.50
2018-12-22T16:08:30.831Z,1.90
2018-12-22T16:11:03.401Z,1.83
2018-12-22T16:13:35.935Z,2.10
2018-12-22T16:16:08.448Z,2.40
2018-12-22T16:18:40.898Z,2.10
2018-12-22T16:21:13.304Z,2.10
2018-12-22T16:23:45.850Z,3.50
2018-12-22T16:26:18.371Z,2.50
2018-12-22T16:28:51.335Z,2.50
2018-12-22T16:31:23.766Z,2.30
2018-12-22T16:33:56.444Z,2.53
2018-12-22T16:36:28.774Z,3.00
2018-12-22T16:39:01.265Z,3.00
2018-12-22T16:41:33.709Z,3.77
2018-12-22T16:44:06.288Z,4.87
2018-12-22T16:46:39.226Z,4.37
2018-12-22T16:49:11.681Z,5.03
2018-12-22T16:51:44.131Z,5.37
2018-12-22T16:54:16.766Z,4.03
2018-12-22T16:56:49.288Z,5.00
2018-12-22T16:59:22.171Z,4.43
2018-12-22T17:01:54.842Z,3.70
2018-12-22T17:04:27.319Z,3.80
2018-12-22T17:06:59.742Z,3.00
2018-12-22T17:09:32.104Z,2.93
2018-12-22T17:12:04.594Z,3.00
2018-12-22T17:14:37.234Z,2.90
2018-12-22T17:17:09.874Z,2.93
2018-12-22T17:19:42.414Z,3.00
2018-12-22T17:22:15.055Z,3.30
2018-12-22T17:24:47.638Z,2.90
2018-12-22T17:27:20.286Z,3.20
2018-12-22T17:29:52.697Z,3.80
2018-12-22T17:32:25.671Z,3.47
2018-12-22T17:34:58.184Z,3.40
2018-12-22T17:37:30.804Z,3.50
2018-12-22T17:40:09.582Z,3.83
2018-12-22T17:42:40.657Z,4.80
2018-12-22T17:45:13.168Z,4.30
2018-12-22T17:47:45.620Z,4.60
2018-12-22T17:50:17.966Z,3.80
2018-12-22T17:52:50.511Z,4.20
2018-12-22T17:55:22.868Z,3.90
2018-12-22T17:57:55.347Z,4.27
2018-12-22T18:00:28.402Z,3.60
2018-12-22T18:03:07.142Z,4.20
2018-12-22T18:05:39.688Z,4.03
2018-12-22T18:08:12.141Z,4.03
2018-12-22T18:10:44.518Z,4.40
2018-12-22T18:13:16.940Z,4.10
2018-12-22T18:15:49.316Z,4.07
2018-12-22T18:18:21.728Z,3.53
2018-12-22T18:20:54.166Z,3.80
2018-12-22T18:23:26.593Z,4.00
2018-12-22T18:25:58.990Z,4.10
2018-12-22T18:28:31.492Z,4.70
2018-12-22T18:31:04.023Z,3.93
2018-12-22T18:33:37.150Z,4.20
2018-12-22T18:36:09.629Z,4.37
2018-12-22T18:38:42.297Z,3.97
2018-12-22T18:41:14.729Z,7.47
2018-12-22T18:43:47.110Z,4.07
2018-12-22T18:46:19.650Z,3.20
2018-12-22T18:48:52.412Z,3.10
2018-12-22T18:51:25.045Z,2.90
2018-12-22T18:53:57.472Z,2.50
2018-12-22T18:56:30.082Z,2.70
2018-12-22T18:59:02.855Z,2.97
2018-12-22T19:01:35.371Z,3.13
2018-12-22T19:04:07.815Z,2.70
2018-12-22T19:06:40.327Z,2.70
2018-12-22T19:09:15.718Z,3.87
2018-12-22T19:11:48.225Z,3.80
2018-12-22T19:14:21.137Z,4.30
2018-12-22T19:16:53.550Z,5.47
2018-12-22T19:19:26.139Z,5.10
2018-12-22T19:21:58.578Z,6.80
2018-12-22T19:24:31.250Z,6.90
2018-12-22T19:27:03.887Z,6.77
2018-12-22T19:29:36.269Z,6.53
2018-12-22T19:32:08.736Z,7.03
2018-12-22T19:34:41.140Z,5.83
2018-12-22T19:37:13.538Z,7.17
2018-12-22T19:39:46.081Z,6.63
2018-12-22T19:42:18.545Z,6.60
2018-12-22T19:44:50.924Z,6.10
2018-12-22T19:47:23.320Z,6.90
2018-12-22T19:49:55.790Z,6.90
2018-12-22T19:52:29.212Z,7.33
2018-12-22T19:55:02.112Z,7.30
2018-12-22T19:57:34.569Z,7.90
2018-12-22T20:00:07.195Z,7.77
2018-12-22T20:02:39.651Z,7.40
2018-12-22T20:05:12.043Z,7.40
2018-12-22T20:07:44.476Z,7.23
2018-12-22T20:10:16.955Z,6.90
2018-12-22T20:12:49.550Z,8.37
2018-12-22T20:15:22.122Z,7.33
2018-12-22T20:17:54.679Z,7.83
2018-12-22T20:20:29.564Z,7.73
2018-12-22T20:23:01.889Z,7.67
2018-12-22T20:25:34.286Z,7.97
2018-12-22T20:28:06.657Z,7.50
2018-12-22T20:30:39.039Z,7.67
2018-12-22T20:33:11.873Z,7.03
2018-12-22T20:35:44.463Z,7.37
2018-12-22T20:38:17.100Z,7.17
2018-12-22T20:40:49.503Z,6.90
2018-12-22T20:43:21.948Z,5.83
2018-12-22T20:45:54.353Z,5.87
2018-12-22T20:48:26.899Z,5.60
2018-12-22T20:50:59.371Z,5.90
2018-12-22T20:53:31.962Z,5.17
2018-12-22T20:56:04.447Z,5.03
2018-12-22T20:58:36.798Z,5.40
2018-12-22T21:01:09.183Z,4.07
2018-12-22T21:03:41.811Z,4.30
2018-12-22T21:06:15.760Z,3.90
2018-12-22T21:08:48.353Z,3.83
2018-12-22T21:11:20.698Z,3.90
2018-12-22T21:13:53.081Z,3.50
2018-12-22T21:16:25.590Z,2.90
2018-12-22T21:18:58.000Z,3.40
2018-12-22T21:21:30.544Z,2.50
2018-12-22T21:24:03.170Z,2.60
2018-12-22T21:26:35.670Z,2.20
2018-12-22T21:29:08.045Z,2.20
2018-12-22T21:31:40.616Z,2.10
2018-12-22T21:34:13.119Z,2.30
2018-12-22T21:36:45.762Z,2.67
2018-12-22T21:39:18.416Z,3.07
2018-12-22T21:41:51.145Z,2.80
2018-12-22T21:44:23.593Z,3.40
2018-12-22T21:46:56.080Z,3.80
2018-12-22T21:49:28.715Z,4.50
2018-12-22T21:52:01.304Z,4.73
2018-12-22T21:54:33.646Z,4.80
2018-12-22T21:57:06.149Z,5.07
2018-12-22T21:59:38.645Z,5.70
2018-12-22T22:02:11.234Z,6.10
2018-12-22T22:04:43.704Z,7.83
2018-12-22T22:07:16.098Z,7.83
2018-12-22T22:09:48.504Z,7.80
2018-12-22T22:12:21.233Z,8.37
2018-12-22T22:14:53.790Z,8.43
2018-12-22T22:17:26.450Z,9.00
2018-12-22T22:19:58.970Z,9.13
2018-12-22T22:22:31.411Z,9.50
2018-12-22T22:25:04.120Z,9.00
2018-12-22T22:27:36.553Z,10.23
2018-12-22T22:30:08.945Z,9.37
2018-12-22T22:32:41.535Z,10.90
2018-12-22T22:35:20.812Z,10.13
2018-12-22T22:37:53.168Z,10.17
2018-12-22T22:40:25.535Z,10.47
2018-12-22T22:42:58.997Z,10.77
2018-12-22T22:45:31.477Z,10.40
2018-12-22T22:48:03.957Z,9.73
2018-12-22T22:50:36.438Z,9.83
2018-12-22T22:53:08.838Z,10.03
2018-12-22T22:55:41.271Z,9.97
2018-12-22T22:58:13.841Z,10.33
2018-12-22T23:00:46.963Z,10.60
2018-12-22T23:03:19.619Z,11.23
2018-12-22T23:05:52.417Z,12.23
2018-12-22T23:08:24.865Z,11.80
2018-12-22T23:10:57.493Z,16.40
2018-12-22T23:13:30.034Z,17.07
2018-12-22T23:16:02.521Z,17.50
2018-12-22T23:18:34.864Z,17.77
2018-12-22T23:21:07.356Z,19.30
2018-12-22T23:23:39.806Z,20.87
2018-12-22T23:26:12.320Z,21.40
2018-12-22T23:28:44.765Z,23.67
2018-12-22T23:31:17.399Z,23.60
2018-12-22T23:33:49.984Z,25.40
2018-12-22T23:36:22.451Z,24.27
2018-12-22T23:38:55.198Z,25.00
2018-12-22T23:41:27.958Z,24.57
2018-12-22T23:44:00.509Z,22.80
2018-12-22T23:46:33.320Z,23.93
2018-12-22T23:49:05.968Z,23.37
2018-12-22T23:51:38.624Z,22.47
2018-12-22T23:54:11.264Z,21.53
2018-12-22T23:56:43.903Z,20.93
2018-12-22T23:59:16.287Z,19.20
